Time;durP1;ratioP1;P1;durP2;ratioP2;P2;SDS_P1;SDS_P2;PMS_P1;PMS_P2;Temp;Humidity;BMP_temperature;BMP_pressure;BME280_temperature;BME280_humidity;BME280_pressure;Samples;Min_cycle;Max_cycle;Signal;HPM_P1;HPM_P2
2023/01/25 00:08:15;;;;;;;0.20;0.10;;;8.60;99.90;;;;;;21234542;27;20442;-72
2023/01/25 00:18:20;;;;;;;0.20;0.10;;;8.60;99.90;;;;;;21232944;27;20914;-71
2023/01/25 00:28:25;;;;;;;0.20;0.00;;;8.70;99.90;;;;;;21214571;27;20412;-71
2023/01/25 00:38:33;;;;;;;0.20;0.10;;;8.90;99.90;;;;;;21195949;27;20454;-71
2023/01/25 00:48:39;;;;;;;0.20;0.10;;;8.90;99.90;;;;;;21213223;27;20401;-71
2023/01/25 00:58:42;;;;;;;0.20;0.10;;;8.80;99.90;;;;;;21230770;28;20397;-71
2023/01/25 01:08:48;;;;;;;0.20;0.10;;;9.20;99.90;;;;;;21195518;28;20405;-72
2023/01/25 01:18:52;;;;;;;0.20;0.10;;;9.60;99.90;;;;;;21215675;28;20401;-72
2023/01/25 01:28:58;;;;;;;0.20;0.10;;;9.60;99.90;;;;;;21212267;27;20400;-72
2023/01/25 01:39:02;;;;;;;0.20;0.10;;;9.50;99.90;;;;;;21227244;27;20416;-72
2023/01/25 01:49:15;;;;;;;0.20;0.10;;;10.30;99.90;;;;;;21226698;27;20465;-72
2023/01/25 01:59:20;;;;;;;0.20;0.10;;;10.50;99.90;;;;;;21226421;27;20483;-73
2023/01/25 02:09:27;;;;;;;0.20;0.10;;;10.00;99.90;;;;;;21244375;27;20759;-72
2023/01/25 02:19:42;;;;;;;0.20;0.10;;;9.40;99.90;;;;;;21243065;27;20423;-71
2023/01/25 02:29:48;;;;;;;0.20;0.10;;;9.40;99.90;;;;;;21242192;27;20414;-71
2023/01/25 02:39:52;;;;;;;0.20;0.10;;;9.40;99.90;;;;;;21240176;27;20407;-73
2023/01/25 02:49:57;;;;;;;0.20;0.10;;;9.50;99.90;;;;;;21221622;27;20421;-72
2023/01/25 03:00:01;;;;;;;0.20;0.10;;;9.30;99.90;;;;;;21239683;27;20397;-73
2023/01/25 03:10:07;;;;;;;0.20;0.10;;;9.00;99.90;;;;;;21220114;27;20471;-73
2023/01/25 03:20:12;;;;;;;0.20;0.10;;;9.00;99.90;;;;;;21237947;27;20407;-72
2023/01/25 03:30:17;;;;;;;0.20;0.10;;;8.90;99.90;;;;;;21218559;27;20521;-73
2023/01/25 03:40:21;;;;;;;0.20;0.10;;;8.90;99.90;;;;;;21141852;28;20395;-73
2023/01/25 03:50:26;;;;;;;0.20;0.10;;;9.10;99.90;;;;;;21233800;27;20759;-72
2023/01/25 04:00:30;;;;;;;0.20;0.10;;;9.30;99.90;;;;;;21199775;27;20385;-73
2023/01/25 04:10:36;;;;;;;0.20;0.10;;;9.30;99.90;;;;;;21234032;27;20806;-73
2023/01/25 04:20:40;;;;;;;0.20;0.10;;;9.20;99.90;;;;;;21233371;27;20405;-73
2023/01/25 04:30:46;;;;;;;0.20;0.10;;;10.00;99.90;;;;;;21232531;27;20409;-73
2023/01/25 04:40:51;;;;;;;0.20;0.10;;;9.90;99.90;;;;;;21115884;28;20386;-73
2023/01/25 04:50:56;;;;;;;0.20;0.10;;;9.70;99.90;;;;;;21146930;28;20439;-73
2023/01/25 05:01:01;;;;;;;0.20;0.10;;;10.00;99.90;;;;;;21145024;28;20407;-72
2023/01/25 05:11:07;;;;;;;0.20;0.10;;;9.90;99.90;;;;;;21135084;28;20410;-74
2023/01/25 05:21:56;;;;;;;0.20;0.07;;;10.20;99.90;;;;;;21156617;28;20407;-74
2023/01/25 05:31:36;;;;;;;0.20;0.10;;;10.10;99.90;;;;;;21142303;28;20406;-73
2023/01/25 05:41:39;;;;;;;0.20;0.10;;;9.90;99.90;;;;;;21076835;28;20424;-74
2023/01/25 05:51:45;;;;;;;0.20;0.10;;;9.80;99.90;;;;;;21102630;28;20501;-72
2023/01/25 06:01:49;;;;;;;0.20;0.10;;;9.70;99.90;;;;;;21159384;28;20398;-74
2023/01/25 06:11:55;;;;;;;0.20;0.10;;;9.70;99.90;;;;;;21140112;28;20410;-73
2023/01/25 06:21:58;;;;;;;0.20;0.10;;;9.80;99.90;;;;;;21143971;27;20431;-72
2023/01/25 06:32:04;;;;;;;0.20;0.10;;;10.10;99.90;;;;;;21206035;27;20509;-74
2023/01/25 06:42:08;;;;;;;0.20;0.10;;;10.10;99.90;;;;;;21204293;27;20413;-73
2023/01/25 06:52:16;;;;;;;0.20;0.10;;;9.50;99.90;;;;;;21237881;27;22219;-74
2023/01/25 07:02:19;;;;;;;0.20;0.10;;;8.90;99.90;;;;;;21218287;27;20393;-74
2023/01/25 07:12:25;;;;;;;0.20;0.10;;;8.40;99.90;;;;;;21219618;27;20409;-73
2023/01/25 07:22:29;;;;;;;0.20;0.00;;;8.20;99.90;;;;;;21236021;27;20408;-73
2023/01/25 07:32:34;;;;;;;0.20;0.10;;;8.20;99.90;;;;;;21225549;27;20895;-73
2023/01/25 07:42:38;;;;;;;0.20;0.10;;;8.20;99.90;;;;;;21232783;27;20393;-75
2023/01/25 07:52:44;;;;;;;0.20;0.10;;;8.30;99.90;;;;;;21231412;27;20397;-73
2023/01/25 08:02:50;;;;;;;0.20;0.10;;;8.60;99.90;;;;;;21230940;27;20393;-73
2023/01/25 08:12:56;;;;;;;0.20;0.10;;;8.50;99.90;;;;;;21232283;27;20420;-72
2023/01/25 08:22:59;;;;;;;0.20;0.10;;;8.60;99.90;;;;;;21230741;27;20405;-73
2023/01/25 08:33:05;;;;;;;0.20;0.10;;;8.90;99.90;;;;;;21230412;27;20895;-73
2023/01/25 08:43:09;;;;;;;0.20;0.10;;;9.60;99.90;;;;;;21206422;27;20401;-73
2023/01/25 08:53:14;;;;;;;0.20;0.10;;;9.80;99.90;;;;;;21189243;27;20405;-73
2023/01/25 09:03:18;;;;;;;0.20;0.10;;;10.20;99.90;;;;;;21192345;28;20868;-72
2023/01/25 09:13:23;;;;;;;0.20;0.10;;;10.60;99.90;;;;;;21195228;28;20389;-71
2023/01/25 09:23:27;;;;;;;0.20;0.10;;;10.70;99.90;;;;;;21181589;28;20445;-73
2023/01/25 09:33:35;;;;;;;0.20;0.10;;;10.70;99.90;;;;;;21185269;28;20743;-71
2023/01/25 09:44:07;;;;;;;0.20;0.10;;;11.20;99.90;;;;;;21184987;28;20426;-73
2023/01/25 09:54:20;;;;;;;0.20;0.10;;;11.00;99.90;;;;;;21165105;27;20419;-72
2023/01/25 10:04:28;;;;;;;0.20;0.10;;;11.50;99.90;;;;;;21146166;27;20395;-72
2023/01/25 10:14:34;;;;;;;0.20;0.10;;;11.80;99.90;;;;;;21155414;28;20490;-73
2023/01/25 10:24:56;;;;;;;0.20;0.10;;;12.30;99.90;;;;;;21138870;27;20788;-71
2023/01/25 10:35:15;;;;;;;0.20;0.10;;;12.80;99.90;;;;;;21181776;27;20405;-72
2023/01/25 10:45:37;;;;;;;0.20;0.10;;;12.50;99.90;;;;;;21168494;27;20441;-73
2023/01/25 10:55:58;;;;;;;0.20;0.10;;;12.70;99.90;;;;;;21134144;28;20428;-71
2023/01/25 11:06:06;;;;;;;0.20;0.10;;;14.10;99.90;;;;;;21132865;28;20414;-70
2023/01/25 11:16:26;;;;;;;0.20;0.10;;;14.60;99.90;;;;;;21151623;28;20899;-73
2023/01/25 11:26:31;;;;;;;0.20;0.10;;;15.00;99.90;;;;;;21197434;27;20437;-71
2023/01/25 11:36:50;;;;;;;0.20;0.10;;;15.30;99.90;;;;;;21186026;27;20396;-73
2023/01/25 11:47:04;;;;;;;0.20;0.10;;;15.90;99.90;;;;;;21195814;27;20401;-72
2023/01/25 11:57:25;;;;;;;0.20;0.10;;;18.10;99.90;;;;;;21145732;28;20394;-71
2023/01/25 12:07:42;;;;;;;0.20;0.10;;;18.60;99.90;;;;;;21161421;27;20401;-71
2023/01/25 12:18:02;;;;;;;0.20;0.10;;;18.50;99.90;;;;;;21163308;27;20408;-70
2023/01/25 12:28:12;;;;;;;0.20;0.10;;;19.10;99.90;;;;;;21155776;27;20407;-73
2023/01/25 12:38:22;;;;;;;0.20;0.10;;;19.00;99.90;;;;;;21131490;27;20398;-70
2023/01/25 12:48:33;;;;;;;0.20;0.10;;;19.10;99.90;;;;;;21160537;27;20408;-70
2023/01/25 12:58:47;;;;;;;0.20;0.10;;;19.80;99.90;;;;;;21136240;27;20984;-70
2023/01/25 13:08:58;;;;;;;0.20;0.10;;;19.80;99.90;;;;;;21167233;27;20417;-71
2023/01/25 13:19:03;;;;;;;0.20;0.10;;;19.30;99.90;;;;;;21170234;27;20416;-69
2023/01/25 13:29:52;;;;;;;0.20;0.10;;;19.70;99.90;;;;;;21146905;27;20911;-71
2023/01/25 13:39:58;;;;;;;0.20;0.10;;;19.10;99.90;;;;;;21155721;27;20381;-71
2023/01/25 13:50:20;;;;;;;0.20;0.10;;;19.40;99.90;;;;;;21215913;27;20397;-70
2023/01/25 14:00:29;;;;;;;0.20;0.00;;;19.40;99.90;;;;;;21202547;27;20396;-69
2023/01/25 14:10:33;;;;;;;0.20;0.10;;;19.10;99.90;;;;;;21204527;27;20938;-70
2023/01/25 14:20:38;;;;;;;0.20;0.03;;;19.70;99.90;;;;;;21187132;27;20508;-70
2023/01/25 14:30:43;;;;;;;0.20;0.00;;;20.40;99.90;;;;;;21187455;27;20405;-69
2023/01/25 14:40:49;;;;;;;0.20;0.10;;;20.80;99.90;;;;;;21190427;27;20385;-69
2023/01/25 14:51:04;;;;;;;0.20;0.10;;;21.70;99.90;;;;;;21217887;27;20415;-68
2023/01/25 15:01:22;;;;;;;0.20;0.10;;;20.10;99.90;;;;;;21161046;27;20397;-67
2023/01/25 15:11:37;;;;;;;0.20;0.10;;;18.70;99.90;;;;;;21199567;27;21550;-67
2023/01/25 15:21:42;;;;;;;0.20;0.10;;;18.70;99.90;;;;;;21200973;27;20895;-69
2023/01/25 15:31:47;;;;;;;0.20;0.10;;;19.00;99.90;;;;;;21214828;27;20412;-68
2023/01/25 15:41:52;;;;;;;0.20;0.10;;;18.70;99.90;;;;;;21193702;27;20385;-69
2023/01/25 15:51:57;;;;;;;0.20;0.10;;;17.40;99.90;;;;;;21183745;27;20516;-69
2023/01/25 16:02:02;;;;;;;0.20;0.10;;;16.20;99.90;;;;;;21218155;27;20415;-68
2023/01/25 16:12:06;;;;;;;0.20;0.10;;;15.60;99.90;;;;;;21203374;27;20432;-69
2023/01/25 16:22:11;;;;;;;0.20;0.00;;;14.90;99.90;;;;;;21212209;27;20393;-69
2023/01/25 16:32:15;;;;;;;0.20;0.10;;;14.10;99.90;;;;;;21200810;27;20452;-68
2023/01/25 16:42:20;;;;;;;0.20;0.10;;;13.00;99.90;;;;;;21218742;27;20408;-67
2023/01/25 16:52:25;;;;;;;0.20;0.00;;;12.30;99.90;;;;;;21203239;27;20393;-68
2023/01/25 17:02:30;;;;;;;0.20;0.00;;;11.80;99.90;;;;;;21197689;27;20401;-68
2023/01/25 17:12:34;;;;;;;0.20;0.00;;;11.50;99.90;;;;;;21165006;27;20979;-69
2023/01/25 17:22:40;;;;;;;0.20;0.10;;;11.20;99.90;;;;;;21193840;27;21028;-71
2023/01/25 17:32:44;;;;;;;0.20;0.10;;;10.70;99.90;;;;;;21216177;27;20404;-69
2023/01/25 17:42:51;;;;;;;0.20;0.10;;;10.60;99.90;;;;;;21193948;27;20837;-70
2023/01/25 17:52:55;;;;;;;0.20;0.10;;;9.90;99.90;;;;;;21220201;27;20413;-69
2023/01/25 18:03:00;;;;;;;0.20;0.10;;;9.60;99.90;;;;;;21202699;27;20396;-68
2023/01/25 18:13:04;;;;;;;0.20;0.10;;;9.30;99.90;;;;;;21206046;27;20413;-69
2023/01/25 18:23:09;;;;;;;0.20;0.10;;;9.20;99.90;;;;;;21216420;27;20392;-70
2023/01/25 18:33:13;;;;;;;0.20;0.10;;;8.90;99.90;;;;;;21185296;27;20738;-68
2023/01/25 18:43:18;;;;;;;5.10;4.90;;;8.70;99.90;;;;;;21130811;28;20783;-70
2023/01/25 18:53:27;;;;;;;0.20;0.10;;;8.80;99.90;;;;;;21204213;27;20491;-69
2023/01/25 19:03:32;;;;;;;0.20;0.10;;;8.70;99.90;;;;;;21207063;27;20525;-69
2023/01/25 19:13:38;;;;;;;0.20;0.10;;;8.30;99.90;;;;;;21221153;27;20458;-78
2023/01/25 19:23:43;;;;;;;0.20;0.10;;;8.00;99.90;;;;;;21192980;27;20395;-69
2023/01/25 19:33:48;;;;;;;1.30;1.20;;;7.80;99.90;;;;;;21127004;28;20766;-68
2023/01/25 19:43:55;;;;;;;0.20;0.10;;;7.90;99.90;;;;;;21125933;28;20403;-69
2023/01/25 19:54:01;;;;;;;5.60;5.20;;;8.00;99.90;;;;;;21124927;28;20411;-68
2023/01/25 20:04:07;;;;;;;0.20;0.10;;;7.30;99.90;;;;;;21087134;28;20393;-71
2023/01/25 20:14:13;;;;;;;0.20;0.10;;;7.50;99.90;;;;;;21059511;28;20523;-70
2023/01/25 20:24:18;;;;;;;0.20;0.00;;;7.40;99.90;;;;;;21120576;27;20606;-67
2023/01/25 20:34:23;;;;;;;0.20;0.10;;;7.00;99.90;;;;;;21153765;27;20472;-68
2023/01/25 20:44:28;;;;;;;0.20;0.10;;;7.20;99.90;;;;;;21207584;27;20786;-67
2023/01/25 20:54:32;;;;;;;2.20;2.10;;;7.30;99.90;;;;;;21225464;27;20440;-69
2023/01/25 21:04:38;;;;;;;0.20;0.10;;;7.50;99.90;;;;;;21226025;27;20443;-68
2023/01/25 21:14:42;;;;;;;0.20;0.10;;;7.10;99.90;;;;;;21181472;28;20515;-67
2023/01/25 21:24:47;;;;;;;0.20;0.10;;;7.40;99.90;;;;;;21229484;28;20386;-69
2023/01/25 21:34:51;;;;;;;0.20;0.10;;;7.40;99.90;;;;;;21200492;28;20406;-69
2023/01/25 21:55:17;;;;;;;0.20;0.10;;;6.90;99.90;;;;;;21193051;27;20462;-69
2023/01/25 22:05:23;;;;;;;0.20;0.10;;;6.80;99.90;;;;;;21161489;27;20438;-71
2023/01/25 22:15:27;;;;;;;0.20;0.10;;;6.70;99.90;;;;;;21179885;27;20458;-70
2023/01/25 22:25:32;;;;;;;0.20;0.10;;;6.50;99.90;;;;;;21171409;27;20383;-68
2023/01/25 22:35:36;;;;;;;0.20;0.10;;;6.40;99.90;;;;;;21156744;27;20458;-70
2023/01/25 22:45:49;;;;;;;0.20;0.10;;;6.20;99.90;;;;;;21145758;27;20453;-69
2023/01/25 22:55:59;;;;;;;0.20;0.10;;;6.00;99.90;;;;;;21143146;27;20438;-69
2023/01/25 23:06:06;;;;;;;0.20;0.00;;;6.10;99.90;;;;;;21158624;27;20992;-69
2023/01/25 23:16:10;;;;;;;0.20;0.10;;;6.20;99.90;;;;;;21153425;27;20982;-70
2023/01/25 23:26:16;;;;;;;0.20;0.10;;;6.30;99.90;;;;;;21179583;27;20406;-70
2023/01/25 23:36:21;;;;;;;0.20;0.10;;;6.30;99.90;;;;;;21160263;27;20461;-70
2023/01/25 23:46:27;;;;;;;0.20;0.10;;;6.00;99.90;;;;;;21177852;27;20430;-68
2023/01/25 23:56:31;;;;;;;0.20;0.03;;;6.00;99.90;;;;;;21158738;27;20464;-68
